createdAt,value
2018-07-20T00:00:39.510Z,18.00
2018-07-20T00:03:10.503Z,18.00
2018-07-20T00:05:42.087Z,18.00
2018-07-20T00:08:12.856Z,17.90
2018-07-20T00:10:44.327Z,17.90
2018-07-20T00:13:15.883Z,17.70
2018-07-20T00:15:46.917Z,17.70
2018-07-20T00:18:18.389Z,17.60
2018-07-20T00:20:49.829Z,17.70
2018-07-20T00:23:20.625Z,17.90
2018-07-20T00:25:51.513Z,17.90
2018-07-20T00:28:22.592Z,17.90
2018-07-20T00:30:53.490Z,17.80
2018-07-20T00:33:24.262Z,17.80
2018-07-20T00:35:56.348Z,17.70
2018-07-20T00:38:27.359Z,17.60
2018-07-20T00:40:58.732Z,17.60
2018-07-20T00:43:29.765Z,17.40
2018-07-20T00:46:00.547Z,17.50
2018-07-20T00:48:31.355Z,17.40
2018-07-20T00:51:02.382Z,17.50
2018-07-20T00:53:33.857Z,17.20
2018-07-20T00:56:04.642Z,17.10
2018-07-20T00:58:35.761Z,17.20
2018-07-20T01:01:06.843Z,17.20
2018-07-20T01:03:37.922Z,17.30
2018-07-20T01:06:08.764Z,17.50
2018-07-20T01:08:40.933Z,17.60
2018-07-20T01:11:11.852Z,17.70
2018-07-20T01:13:42.746Z,17.60
2018-07-20T01:16:13.937Z,17.40
2018-07-20T01:18:45.752Z,17.50
2018-07-20T01:21:17.762Z,17.60
2018-07-20T01:23:49.043Z,17.50
2018-07-20T01:26:19.924Z,17.50
2018-07-20T01:28:51.089Z,17.30
2018-07-20T01:31:22.353Z,17.20
2018-07-20T01:33:54.732Z,17.30
2018-07-20T01:36:26.212Z,17.30
2018-07-20T01:38:57.581Z,17.20
2018-07-20T01:41:28.426Z,17.10
2018-07-20T01:43:59.572Z,16.80
2018-07-20T01:46:30.336Z,17.00
2018-07-20T01:49:01.071Z,17.20
2018-07-20T01:51:32.176Z,17.20
2018-07-20T01:54:03.320Z,17.20
2018-07-20T01:56:34.198Z,17.20
2018-07-20T01:59:04.978Z,17.00
2018-07-20T02:01:35.789Z,16.90
2018-07-20T02:04:07.289Z,16.70
2018-07-20T02:06:38.356Z,16.70
2018-07-20T02:09:10.928Z,16.70
2018-07-20T02:11:42.439Z,16.80
2018-07-20T02:14:13.347Z,17.10
2018-07-20T02:16:44.250Z,16.90
2018-07-20T02:19:15.681Z,16.90
2018-07-20T02:21:46.491Z,16.90
2018-07-20T02:24:17.435Z,16.70
2018-07-20T02:26:48.504Z,16.70
2018-07-20T02:29:19.297Z,16.80
2018-07-20T02:31:50.183Z,17.00
2018-07-20T02:34:21.437Z,17.20
2018-07-20T02:36:53.798Z,17.10
2018-07-20T02:39:24.647Z,16.90
2018-07-20T02:41:55.437Z,16.70
2018-07-20T02:44:26.497Z,16.80
2018-07-20T02:46:57.325Z,16.70
2018-07-20T02:49:28.142Z,16.80
2018-07-20T02:51:59.702Z,16.90
2018-07-20T02:54:31.536Z,17.20
2018-07-20T02:57:02.247Z,17.40
2018-07-20T02:59:33.521Z,17.40
2018-07-20T03:02:04.693Z,17.40
2018-07-20T03:04:35.733Z,17.30
2018-07-20T03:07:07.337Z,17.20
2018-07-20T03:09:38.252Z,17.00
2018-07-20T03:12:09.160Z,17.00
2018-07-20T03:14:40.714Z,16.90
2018-07-20T03:17:11.583Z,16.80
2018-07-20T03:19:42.502Z,16.70
2018-07-20T03:22:13.575Z,16.70
2018-07-20T03:24:44.707Z,16.80
2018-07-20T03:27:15.513Z,16.90
2018-07-20T03:29:46.554Z,16.90
2018-07-20T03:32:18.978Z,17.00
2018-07-20T03:34:51.670Z,17.10
2018-07-20T03:37:22.965Z,17.10
2018-07-20T03:39:54.440Z,17.20
2018-07-20T03:42:25.146Z,17.10
2018-07-20T03:44:56.584Z,17.00
2018-07-20T03:47:27.305Z,17.00
2018-07-20T03:49:59.218Z,16.90
2018-07-20T03:55:01.355Z,17.10
2018-07-20T03:57:32.459Z,17.10
2018-07-20T04:02:34.704Z,17.00
2018-07-20T04:05:05.849Z,17.10
2018-07-20T04:07:37.254Z,17.10
2018-07-20T04:10:08.375Z,17.20
2018-07-20T04:12:39.301Z,17.20
2018-07-20T04:15:10.994Z,17.30
2018-07-20T04:17:45.416Z,17.30
2018-07-20T04:20:17.338Z,17.10
2018-07-20T04:22:50.728Z,17.20
2018-07-20T04:25:22.303Z,17.30
2018-07-20T04:27:53.501Z,17.50
2018-07-20T04:30:25.252Z,17.50
2018-07-20T04:32:59.462Z,17.50
2018-07-20T04:35:30.746Z,17.50
2018-07-20T04:38:01.659Z,17.40
2018-07-20T04:40:33.474Z,17.40
2018-07-20T04:43:04.699Z,17.70
2018-07-20T04:45:36.386Z,17.80
2018-07-20T04:48:07.658Z,17.80
2018-07-20T04:50:39.940Z,17.90
2018-07-20T04:53:11.772Z,18.00
2018-07-20T04:55:43.473Z,18.00
2018-07-20T04:58:14.882Z,18.10
2018-07-20T05:00:45.785Z,18.30
2018-07-20T05:03:16.829Z,19.00
2018-07-20T05:05:51.531Z,20.40
2018-07-20T05:08:23.461Z,21.50
2018-07-20T05:10:54.636Z,22.30
2018-07-20T05:13:27.200Z,23.20
2018-07-20T05:16:03.870Z,23.00
2018-07-20T05:21:08.397Z,21.70
2018-07-20T05:26:14.263Z,21.00
2018-07-20T05:28:45.043Z,20.50
2018-07-20T05:31:16.464Z,19.90
2018-07-20T05:37:21.902Z,19.70
2018-07-20T05:39:55.409Z,19.80
2018-07-20T05:42:29.706Z,19.70
2018-07-20T05:45:02.900Z,20.00
2018-07-20T05:50:07.717Z,20.00
2018-07-20T05:52:39.031Z,19.90
2018-07-20T05:55:10.449Z,19.70
2018-07-20T05:57:41.234Z,19.80
2018-07-20T06:00:12.467Z,20.00
2018-07-20T06:02:44.046Z,20.20
2018-07-20T06:05:14.897Z,20.40
2018-07-20T06:07:52.865Z,20.50
2018-07-20T06:10:25.869Z,20.80
2018-07-20T06:13:20.287Z,20.90
2018-07-20T06:15:56.204Z,21.10
2018-07-20T06:19:07.973Z,21.00
2018-07-20T06:21:49.605Z,21.00
2018-07-20T06:24:21.342Z,21.30
2018-07-20T06:26:53.404Z,22.40
2018-07-20T06:29:57.066Z,24.40
2018-07-20T06:32:46.442Z,25.90
2018-07-20T06:35:22.466Z,27.00
2018-07-20T06:37:56.373Z,27.80
2018-07-20T06:46:13.547Z,28.60
2018-07-20T06:48:46.143Z,28.50
2018-07-20T06:51:28.206Z,28.90
2018-07-20T06:54:08.187Z,30.30
2018-07-20T06:56:42.231Z,31.00
2018-07-20T06:59:13.606Z,30.60
2018-07-20T07:01:49.263Z,30.80
2018-07-20T07:04:25.729Z,31.10
2018-07-20T07:07:18.437Z,31.30
2018-07-20T07:09:58.470Z,31.50
2018-07-20T07:15:37.486Z,33.40
2018-07-20T07:18:08.611Z,33.10
2018-07-20T07:20:41.062Z,31.90
2018-07-20T07:23:14.392Z,32.60
2018-07-20T07:25:45.513Z,33.00
2018-07-20T07:28:16.552Z,34.00
2018-07-20T07:30:47.922Z,34.60
2018-07-20T07:33:19.509Z,35.10
2018-07-20T07:35:50.690Z,34.40
2018-07-20T07:38:22.203Z,33.30
2018-07-20T07:40:54.625Z,33.00
2018-07-20T07:43:25.493Z,33.20
2018-07-20T07:49:32.703Z,35.00
2018-07-20T07:52:03.810Z,34.30
2018-07-20T07:54:37.783Z,34.30
2018-07-20T07:57:51.047Z,34.70
2018-07-20T08:00:23.865Z,35.40
2018-07-20T08:05:45.808Z,37.60
2018-07-20T08:08:19.830Z,36.90
2018-07-20T08:10:54.745Z,36.90
2018-07-20T08:13:26.721Z,38.10
2018-07-20T08:16:00.981Z,39.40
2018-07-20T08:18:38.248Z,35.90
2018-07-20T08:21:26.993Z,36.70
2018-07-20T08:24:07.335Z,32.90
2018-07-20T08:26:45.449Z,31.50
2018-07-20T08:29:18.719Z,30.00
2018-07-20T08:35:25.538Z,31.80
2018-07-20T08:38:09.832Z,33.20
2018-07-20T08:44:26.799Z,30.10
2018-07-20T08:47:04.644Z,33.00
2018-07-20T08:49:42.947Z,35.30
2018-07-20T08:53:10.474Z,36.00
2018-07-20T08:55:44.084Z,33.80
2018-07-20T08:58:55.641Z,33.50
2018-07-20T09:01:27.443Z,32.80
2018-07-20T09:06:32.376Z,31.40
2018-07-20T09:15:19.649Z,29.80
2018-07-20T09:17:53.433Z,29.60
2018-07-20T09:20:27.093Z,30.10
2018-07-20T09:22:59.951Z,30.50
2018-07-20T09:25:32.611Z,29.90
2018-07-20T09:30:37.971Z,29.20
2018-07-20T09:33:11.965Z,29.40
2018-07-20T09:35:43.842Z,30.90
2018-07-20T09:38:17.070Z,31.80
2018-07-20T09:41:17.965Z,30.20
2018-07-20T09:43:57.357Z,30.30
2018-07-20T09:46:51.682Z,31.20
2018-07-20T09:49:26.469Z,31.90
2018-07-20T09:52:10.513Z,31.50
2018-07-20T09:54:57.812Z,32.70
2018-07-20T09:57:36.102Z,30.70
2018-07-20T10:00:51.997Z,31.00
2018-07-20T10:03:25.959Z,30.50
2018-07-20T10:09:35.329Z,29.70
2018-07-20T10:12:10.205Z,29.70
2018-07-20T10:15:06.261Z,29.00
2018-07-20T10:17:40.697Z,29.30
2018-07-20T10:20:12.695Z,29.30
2018-07-20T10:22:46.646Z,28.40
2018-07-20T10:25:21.909Z,28.80
2018-07-20T10:27:53.573Z,29.40
2018-07-20T10:30:29.706Z,29.30
2018-07-20T10:33:03.675Z,29.00
2018-07-20T10:38:07.454Z,28.70
2018-07-20T10:40:48.160Z,29.10
2018-07-20T10:43:21.334Z,30.10
2018-07-20T10:45:55.732Z,30.90
2018-07-20T10:48:29.409Z,30.00
2018-07-20T10:51:02.291Z,30.10
2018-07-20T10:53:35.472Z,29.60
2018-07-20T10:56:08.637Z,29.80
2018-07-20T10:58:42.420Z,30.10
2018-07-20T11:01:15.204Z,28.90
2018-07-20T11:03:47.137Z,29.50
2018-07-20T11:06:24.649Z,30.10
2018-07-20T11:08:57.221Z,30.00
2018-07-20T11:11:30.140Z,30.40
2018-07-20T11:14:02.172Z,30.00
2018-07-20T11:16:38.625Z,29.10
2018-07-20T11:19:10.813Z,28.90
2018-07-20T11:21:44.677Z,29.40
2018-07-20T11:24:18.094Z,29.40
2018-07-20T11:26:54.155Z,29.20
2018-07-20T11:29:30.403Z,29.40
2018-07-20T11:32:35.869Z,29.60
2018-07-20T11:35:09.626Z,29.90
2018-07-20T11:37:43.829Z,29.40
2018-07-20T11:40:22.538Z,29.30
2018-07-20T11:43:27.739Z,29.10
2018-07-20T11:46:16.907Z,28.80
2018-07-20T11:48:54.246Z,29.20
2018-07-20T11:51:29.791Z,29.10
2018-07-20T11:54:01.786Z,28.80
2018-07-20T11:56:36.016Z,28.70
2018-07-20T12:01:42.059Z,29.60
2018-07-20T12:04:16.289Z,29.40
2018-07-20T12:06:50.006Z,29.40
2018-07-20T12:09:26.494Z,29.00
2018-07-20T12:11:58.717Z,29.20
2018-07-20T12:14:31.083Z,29.10
2018-07-20T12:17:02.069Z,29.20
2018-07-20T12:19:33.746Z,29.30
2018-07-20T12:22:06.704Z,28.70
2018-07-20T12:24:39.287Z,28.80
2018-07-20T12:27:13.266Z,29.00
2018-07-20T12:29:44.509Z,29.20
2018-07-20T12:32:16.236Z,29.50
2018-07-20T12:34:47.999Z,28.90
2018-07-20T12:37:19.501Z,28.70
2018-07-20T12:39:50.921Z,28.70
2018-07-20T12:42:24.189Z,28.80
2018-07-20T12:44:55.949Z,28.70
2018-07-20T12:47:28.385Z,28.70
2018-07-20T12:50:03.327Z,28.50
2018-07-20T12:52:43.255Z,28.70
2018-07-20T12:58:04.089Z,29.20
2018-07-20T13:00:42.924Z,29.20
2018-07-20T13:03:22.743Z,29.20
2018-07-20T13:06:00.103Z,29.10
2018-07-20T13:08:42.347Z,29.00
2018-07-20T13:11:34.269Z,29.10
2018-07-20T13:14:06.548Z,29.00
2018-07-20T13:16:39.850Z,29.30
2018-07-20T13:19:12.427Z,29.40
2018-07-20T13:21:47.652Z,29.50
2018-07-20T13:24:19.732Z,29.00
2018-07-20T13:26:51.523Z,28.60
2018-07-20T13:29:24.306Z,28.50
2018-07-20T13:32:05.332Z,28.80
2018-07-20T13:35:21.244Z,29.10
2018-07-20T13:37:54.959Z,29.40
2018-07-20T13:40:29.666Z,29.20
2018-07-20T13:43:02.368Z,29.10
2018-07-20T13:45:36.827Z,29.00
2018-07-20T13:48:09.689Z,29.10
2018-07-20T13:50:40.744Z,29.30
2018-07-20T13:53:50.247Z,29.50
2018-07-20T13:56:25.647Z,29.70
2018-07-20T13:58:57.573Z,29.20
2018-07-20T14:01:29.458Z,28.90
2018-07-20T14:06:48.348Z,28.30
2018-07-20T14:09:22.582Z,28.30
2018-07-20T14:11:54.113Z,28.20
2018-07-20T14:14:26.211Z,28.00
2018-07-20T14:16:58.218Z,28.20
2018-07-20T14:19:30.134Z,28.10
2018-07-20T14:22:28.832Z,28.30
2018-07-20T14:25:20.141Z,28.20
2018-07-20T14:31:31.361Z,28.30
2018-07-20T14:34:06.843Z,28.10
2018-07-20T14:36:38.920Z,28.20
2018-07-20T14:41:45.805Z,28.10
2018-07-20T14:44:22.973Z,28.40
2018-07-20T14:46:56.632Z,28.20
2018-07-20T14:49:32.549Z,28.30
2018-07-20T14:52:10.316Z,28.30
2018-07-20T14:54:53.539Z,28.50
2018-07-20T14:57:25.731Z,28.50
2018-07-20T15:02:58.757Z,28.00
2018-07-20T15:05:30.951Z,28.40
2018-07-20T15:08:03.990Z,28.80
2018-07-20T15:10:35.713Z,28.80
2018-07-20T15:13:07.128Z,28.80
2018-07-20T15:15:37.876Z,28.60
2018-07-20T15:18:09.517Z,28.60
2018-07-20T15:20:41.472Z,28.80
2018-07-20T15:23:16.334Z,28.80
2018-07-20T15:25:48.275Z,28.70
2018-07-20T15:31:02.128Z,28.80
2018-07-20T15:33:44.731Z,29.00
2018-07-20T15:36:17.408Z,29.10
2018-07-20T15:38:51.176Z,28.90
2018-07-20T15:41:25.163Z,28.70
2018-07-20T15:43:58.088Z,28.40
2018-07-20T15:46:31.368Z,28.60
2018-07-20T15:49:04.675Z,28.50
2018-07-20T15:53:35.205Z,28.20
2018-07-20T15:54:12.515Z,28.30
2018-07-20T15:56:49.848Z,28.30
2018-07-20T16:02:57.959Z,28.50
2018-07-20T16:05:39.461Z,28.30
2018-07-20T16:08:18.380Z,28.40
2018-07-20T16:10:58.766Z,28.40
2018-07-20T16:13:37.515Z,28.40
2018-07-20T16:16:16.394Z,28.50
2018-07-20T16:18:54.889Z,28.30
2018-07-20T16:21:40.299Z,28.20
2018-07-20T16:24:15.186Z,28.20
2018-07-20T16:32:59.201Z,27.90
2018-07-20T16:35:36.503Z,27.70
2018-07-20T16:38:23.317Z,27.60
2018-07-20T16:43:39.711Z,27.60
2018-07-20T16:46:24.847Z,27.70
2018-07-20T16:49:17.606Z,27.90
2018-07-20T16:51:59.809Z,28.30
2018-07-20T16:54:45.131Z,28.50
2018-07-20T16:57:41.100Z,28.60
2018-07-20T17:00:23.591Z,28.50
2018-07-20T17:03:10.343Z,28.30
2018-07-20T17:05:54.516Z,28.30
2018-07-20T17:08:34.472Z,28.40
2018-07-20T17:11:11.601Z,28.30
2018-07-20T17:16:33.852Z,28.10
2018-07-20T17:19:12.179Z,28.20
2018-07-20T17:21:54.420Z,28.20
2018-07-20T17:24:34.687Z,28.30
2018-07-20T17:27:37.686Z,28.20
2018-07-20T17:30:21.384Z,28.30
2018-07-20T17:32:57.487Z,28.00
2018-07-20T17:35:38.507Z,27.60
2018-07-20T17:38:22.798Z,27.50
2018-07-20T17:41:09.725Z,27.20
2018-07-20T17:43:48.350Z,27.00
2018-07-20T17:46:26.594Z,27.20
2018-07-20T17:49:09.158Z,27.30
2018-07-20T17:51:53.146Z,27.10
2018-07-20T17:54:47.849Z,26.90
2018-07-20T18:00:10.470Z,26.30
2018-07-20T18:02:48.726Z,26.00
2018-07-20T18:05:46.133Z,25.90
2018-07-20T18:09:03.293Z,26.20
2018-07-20T18:14:38.622Z,26.10
2018-07-20T18:17:15.681Z,25.70
2018-07-20T18:19:54.106Z,25.40
2018-07-20T18:22:50.009Z,25.40
2018-07-20T18:25:33.675Z,25.30
2018-07-20T18:28:15.106Z,25.40
2018-07-20T18:30:59.142Z,25.40
2018-07-20T18:33:43.319Z,25.10
2018-07-20T18:36:21.577Z,24.90
2018-07-20T18:39:02.457Z,24.90
2018-07-20T18:41:47.845Z,24.60
2018-07-20T18:44:30.294Z,24.30
2018-07-20T18:47:07.744Z,23.90
2018-07-20T18:49:55.407Z,23.90
2018-07-20T18:52:36.956Z,24.20
2018-07-20T18:55:24.792Z,24.20
2018-07-20T18:58:06.732Z,24.00
2018-07-20T19:03:50.543Z,24.00
2018-07-20T19:06:36.475Z,23.60
2018-07-20T19:09:14.437Z,23.20
2018-07-20T19:11:58.787Z,22.90
2018-07-20T19:14:34.778Z,22.80
2018-07-20T19:17:17.538Z,22.60
2018-07-20T19:20:23.306Z,22.80
2018-07-20T19:23:10.843Z,22.80
2018-07-20T19:32:08.086Z,22.60
2018-07-20T19:34:55.329Z,22.50
2018-07-20T19:37:38.355Z,22.50
2018-07-20T19:40:18.062Z,22.60
2018-07-20T19:43:04.883Z,22.70
2018-07-20T19:45:56.140Z,22.40
2018-07-20T19:48:32.110Z,22.30
2018-07-20T19:51:14.355Z,22.10
2018-07-20T19:53:50.459Z,22.20
2018-07-20T19:59:02.519Z,22.20
2018-07-20T20:01:40.637Z,22.00
2018-07-20T20:04:18.039Z,21.80
2018-07-20T20:10:04.489Z,21.90
2018-07-20T20:12:37.109Z,22.10
2018-07-20T20:15:12.506Z,22.20
2018-07-20T20:17:52.584Z,22.30
2018-07-20T20:20:25.693Z,22.30
2018-07-20T20:22:59.159Z,22.20
2018-07-20T20:25:39.722Z,22.20
2018-07-20T20:28:14.789Z,22.20
2018-07-20T20:35:56.995Z,22.10
2018-07-20T20:38:27.375Z,21.80
2018-07-20T20:41:01.480Z,21.60
2018-07-20T20:43:34.364Z,21.60
2018-07-20T20:46:06.906Z,21.40
2018-07-20T20:48:43.166Z,21.40
2018-07-20T20:51:18.828Z,21.60
2018-07-20T20:53:52.512Z,22.00
2018-07-20T20:56:23.628Z,22.40
2018-07-20T20:58:55.241Z,22.70
2018-07-20T21:01:28.019Z,22.70
2018-07-20T21:03:58.911Z,22.70
2018-07-20T21:06:30.947Z,22.70
2018-07-20T21:09:01.881Z,22.80
2018-07-20T21:11:33.383Z,22.80
2018-07-20T21:14:03.231Z,22.80
2018-07-20T21:16:34.420Z,22.80
2018-07-20T21:19:04.467Z,22.70
2018-07-20T21:21:34.911Z,22.80
2018-07-20T21:24:06.212Z,22.80
2018-07-20T21:26:36.332Z,22.70
2018-07-20T21:29:10.383Z,22.70
2018-07-20T21:31:41.374Z,22.60
2018-07-20T21:34:11.384Z,22.60
2018-07-20T21:36:42.011Z,22.60
2018-07-20T21:39:14.613Z,22.50
2018-07-20T21:41:46.771Z,22.40
2018-07-20T21:44:16.330Z,22.40
2018-07-20T21:46:46.828Z,22.30
2018-07-20T21:49:17.772Z,22.20
2018-07-20T21:51:47.583Z,22.20
2018-07-20T21:54:18.185Z,22.00
2018-07-20T21:56:48.808Z,21.90
2018-07-20T21:59:19.069Z,21.90
2018-07-20T22:01:49.771Z,21.70
2018-07-20T22:04:19.551Z,21.70
2018-07-20T22:06:49.979Z,21.70
2018-07-20T22:09:21.376Z,21.60
2018-07-20T22:11:51.883Z,21.40
2018-07-20T22:14:23.824Z,21.40
2018-07-20T22:17:02.781Z,21.30
2018-07-20T22:19:36.382Z,21.50
2018-07-20T22:22:05.941Z,21.40
2018-07-20T22:24:35.407Z,21.30
2018-07-20T22:27:07.578Z,21.20
2018-07-20T22:29:38.050Z,21.20
2018-07-20T22:32:13.915Z,21.20
2018-07-20T22:34:44.797Z,21.20
2018-07-20T22:37:14.593Z,21.10
2018-07-20T22:39:44.769Z,21.10
2018-07-20T22:42:15.571Z,21.00
2018-07-20T22:44:48.175Z,21.00
2018-07-20T22:47:22.098Z,21.00
2018-07-20T22:49:55.466Z,21.10
2018-07-20T22:52:27.359Z,21.20
2018-07-20T22:54:57.688Z,21.20
2018-07-20T22:57:27.441Z,21.10
2018-07-20T22:59:57.780Z,21.00
2018-07-20T23:02:27.415Z,21.10
2018-07-20T23:05:06.006Z,21.20
2018-07-20T23:07:36.679Z,21.10
2018-07-20T23:10:06.555Z,21.00
2018-07-20T23:12:36.633Z,21.00
2018-07-20T23:15:06.779Z,21.00
2018-07-20T23:17:37.766Z,21.10
2018-07-20T23:20:08.753Z,20.90
2018-07-20T23:22:40.639Z,20.70
2018-07-20T23:25:12.195Z,20.70
2018-07-20T23:27:41.974Z,20.70
2018-07-20T23:30:11.592Z,20.70
2018-07-20T23:32:41.673Z,20.70
2018-07-20T23:35:11.574Z,20.70
2018-07-20T23:37:41.706Z,20.90
2018-07-20T23:40:11.143Z,20.90
2018-07-20T23:42:40.579Z,21.00
2018-07-20T23:45:10.346Z,20.90
2018-07-20T23:47:40.177Z,20.70
2018-07-20T23:50:09.626Z,20.70
2018-07-20T23:52:40.251Z,20.60
2018-07-20T23:55:10.024Z,20.50
2018-07-20T23:57:39.448Z,20.40
